Terminal Aerodrome Forecast
Issued by NWS

Home | Current Version | Previous Version | Text Only | Print | Product List | Glossary On
Versions: 1 2 3 4 5 6 7 8 9 10 11 12 13
000
FTAK31 PAJN 261735
TAFASI
TAF
PASI 261735Z 2618/2718 09009KT P6SM SCT040 OVC080
     FM270800 11007KT P6SM -RA SCT040 OVC060
     FM271300 12014KT 5SM -RA BR OVC025=

USA.gov is the U.S. government's official web portal to all federal, state and local government web resources and services.